Time;durP1;ratioP1;P1;durP2;ratioP2;P2;SDS_P1;SDS_P2;PMS_P1;PMS_P2;Temp;Humidity;BMP_temperature;BMP_pressure;BME280_temperature;BME280_humidity;BME280_pressure;Samples;Min_cycle;Max_cycle;Signal;HPM_P1;HPM_P2
2023/12/17 00:01:59;;;;;;;12.13;6.67;;;;;;;3.52;100.00;102470.19;5058020;28;20232;-69
2023/12/17 00:04:24;;;;;;;12.10;6.90;;;;;;;3.58;100.00;102460.91;5062765;28;20193;-69
2023/12/17 00:06:49;;;;;;;12.93;6.83;;;;;;;3.65;100.00;102458.44;5072195;28;20183;-66
2023/12/17 00:09:14;;;;;;;12.23;6.70;;;;;;;3.78;100.00;102461.97;5070400;28;20218;-68
2023/12/17 00:11:40;;;;;;;14.13;6.60;;;;;;;3.64;100.00;102460.97;5074719;28;20223;-67
2023/12/17 00:14:06;;;;;;;11.63;6.47;;;;;;;3.88;100.00;102455.31;5044424;28;20189;-67
2023/12/17 00:16:31;;;;;;;10.03;6.00;;;;;;;3.75;100.00;102448.41;5071281;28;20271;-69
2023/12/17 00:18:56;;;;;;;15.10;6.33;;;;;;;3.78;100.00;102451.81;5070020;28;20705;-69
2023/12/17 00:21:22;;;;;;;9.87;6.13;;;;;;;3.82;100.00;102453.56;5071311;28;20239;-69
2023/12/17 00:23:47;;;;;;;12.33;5.93;;;;;;;3.90;100.00;102460.44;5075117;28;20177;-71
2023/12/17 00:26:12;;;;;;;11.97;6.23;;;;;;;4.02;100.00;102471.59;5071014;28;20617;-72
2023/12/17 00:28:37;;;;;;;13.20;6.37;;;;;;;4.05;100.00;102468.25;5052923;28;20175;-70
2023/12/17 00:31:03;;;;;;;9.80;6.63;;;;;;;4.01;100.00;102469.06;5027718;28;20238;-70
2023/12/17 00:33:28;;;;;;;17.00;7.67;;;;;;;4.15;100.00;102469.19;5058926;28;20199;-71
2023/12/17 00:35:54;;;;;;;9.17;5.50;;;;;;;4.23;100.00;102466.72;5070639;28;20245;-66
2023/12/17 00:38:19;;;;;;;16.63;6.97;;;;;;;4.29;100.00;102461.69;5068182;28;20242;-68
2023/12/17 00:40:45;;;;;;;16.07;6.67;;;;;;;4.39;100.00;102463.50;5064997;28;20730;-66
2023/12/17 00:43:10;;;;;;;10.43;6.20;;;;;;;4.37;100.00;102465.16;5067834;28;20191;-68
2023/12/17 00:45:35;;;;;;;14.37;6.70;;;;;;;4.13;100.00;102469.19;5069392;28;20639;-68
2023/12/17 00:48:00;;;;;;;15.53;6.37;;;;;;;4.10;100.00;102466.59;5063609;28;20173;-68
2023/12/17 00:50:26;;;;;;;12.70;6.30;;;;;;;4.18;100.00;102469.22;5061233;28;20247;-67
2023/12/17 00:52:51;;;;;;;14.87;6.13;;;;;;;4.50;100.00;102467.00;5074979;28;20538;-67
2023/12/17 00:55:16;;;;;;;9.43;5.70;;;;;;;4.68;100.00;102466.28;5070504;28;20184;-66
2023/12/17 00:57:41;;;;;;;13.30;6.33;;;;;;;4.43;100.00;102462.66;5064471;28;20181;-68
2023/12/17 01:00:07;;;;;;;12.80;5.90;;;;;;;4.47;100.00;102471.19;5058557;28;20176;-67
2023/12/17 01:02:32;;;;;;;12.23;6.50;;;;;;;4.66;100.00;102480.72;5059452;28;20601;-65
2023/12/17 01:04:58;;;;;;;15.40;6.63;;;;;;;4.52;100.00;102480.59;5064454;28;20264;-64
2023/12/17 01:07:23;;;;;;;14.27;5.77;;;;;;;4.28;100.00;102473.56;5066485;28;20185;-70
2023/12/17 01:09:48;;;;;;;19.30;6.27;;;;;;;4.33;100.00;102468.53;5066878;28;20199;-68
2023/12/17 01:12:13;;;;;;;10.67;5.53;;;;;;;4.54;100.00;102475.53;5059194;28;20217;-69
2023/12/17 01:14:39;;;;;;;8.87;5.70;;;;;;;4.37;100.00;102465.16;5061633;28;20259;-67
2023/12/17 01:17:07;;;;;;;12.30;6.10;;;;;;;4.24;100.00;102455.69;5050930;28;20181;-65
2023/12/17 01:19:34;;;;;;;10.53;5.50;;;;;;;4.21;100.00;102459.06;5056000;28;20287;-65
2023/12/17 01:22:00;;;;;;;9.77;5.33;;;;;;;4.35;100.00;102469.38;5042753;28;20227;-64
2023/12/17 01:24:25;;;;;;;10.50;5.73;;;;;;;4.26;100.00;102467.59;5058433;28;20195;-65
2023/12/17 01:26:50;;;;;;;8.63;5.20;;;;;;;4.46;100.00;102467.78;5068992;28;20199;-63
2023/12/17 01:29:16;;;;;;;15.17;5.87;;;;;;;4.36;100.00;102464.28;5070795;28;20196;-63
2023/12/17 01:31:41;;;;;;;8.03;5.40;;;;;;;4.38;100.00;102469.44;5049066;28;20235;-63
2023/12/17 01:34:07;;;;;;;13.57;6.03;;;;;;;4.40;100.00;102465.19;5060472;28;20640;-64
2023/12/17 01:36:33;;;;;;;8.60;5.63;;;;;;;4.15;100.00;102459.84;5068533;28;20188;-63
2023/12/17 01:38:58;;;;;;;10.47;5.33;;;;;;;4.14;100.00;102454.75;5070276;28;20177;-64
2023/12/17 01:41:23;;;;;;;9.57;5.47;;;;;;;4.20;100.00;102455.69;5069495;28;20234;-63
2023/12/17 01:43:48;;;;;;;11.90;5.17;;;;;;;4.25;100.00;102452.31;5066387;28;20693;-64
2023/12/17 01:46:14;;;;;;;12.37;5.33;;;;;;;4.12;100.00;102452.19;5068974;28;20176;-64
2023/12/17 01:48:40;;;;;;;8.30;5.47;;;;;;;4.33;100.00;102450.69;5068865;28;20179;-64
2023/12/17 01:51:05;;;;;;;10.87;6.37;;;;;;;4.50;100.00;102463.56;5060279;28;20247;-64
2023/12/17 01:53:31;;;;;;;13.20;6.60;;;;;;;4.32;100.00;102454.06;5077962;28;20184;-63
2023/12/17 01:55:56;;;;;;;8.40;5.33;;;;;;;4.27;100.00;102448.94;5069598;28;20175;-64
2023/12/17 01:58:22;;;;;;;12.07;5.20;;;;;;;4.44;100.00;102450.78;5070905;28;20245;-64
2023/12/17 02:00:51;;;;;;;11.83;5.20;;;;;;;4.55;100.00;102458.50;5069198;28;20218;-63
2023/12/17 02:03:16;;;;;;;15.47;5.73;;;;;;;4.49;100.00;102459.31;5073012;28;20232;-64
2023/12/17 02:05:45;;;;;;;9.43;5.77;;;;;;;4.32;100.00;102454.06;5074589;28;20187;-65
2023/12/17 02:08:10;;;;;;;10.53;5.50;;;;;;;4.30;100.00;102458.28;5068889;28;20612;-63
2023/12/17 02:10:35;;;;;;;9.33;5.60;;;;;;;4.33;100.00;102459.19;5061203;27;20227;-63
2023/12/17 02:13:01;;;;;;;13.40;7.20;;;;;;;4.42;100.00;102465.22;5075227;28;20603;-63
2023/12/17 02:15:26;;;;;;;11.30;6.10;;;;;;;4.55;100.00;102474.66;5055164;28;20211;-64
2023/12/17 02:17:52;;;;;;;10.90;5.70;;;;;;;4.63;100.00;102474.75;5053212;28;20238;-64
2023/12/17 02:20:17;;;;;;;12.73;5.80;;;;;;;4.52;100.00;102474.66;5046956;28;20281;-63
2023/12/17 02:22:44;;;;;;;15.50;6.17;;;;;;;4.53;100.00;102464.44;5067733;28;20176;-63
2023/12/17 02:25:09;;;;;;;10.47;6.70;;;;;;;4.34;100.00;102467.66;5053610;28;20181;-64
2023/12/17 02:27:35;;;;;;;9.93;5.73;;;;;;;4.20;100.00;102468.41;5054591;28;20184;-63
2023/12/17 02:30:00;;;;;;;11.03;6.10;;;;;;;4.52;100.00;102469.53;5053231;28;20193;-64
2023/12/17 02:32:26;;;;;;;10.03;6.07;;;;;;;4.53;100.00;102469.56;5059365;28;20666;-63
2023/12/17 02:34:52;;;;;;;8.73;5.50;;;;;;;4.59;100.00;102467.88;5071531;28;20189;-65
2023/12/17 02:37:18;;;;;;;13.13;6.03;;;;;;;4.62;100.00;102456.03;5069235;28;20220;-64
2023/12/17 02:39:43;;;;;;;12.77;5.03;;;;;;;4.39;100.00;102452.44;5053341;28;20177;-64
2023/12/17 02:42:08;;;;;;;13.57;4.43;;;;;;;4.45;100.00;102440.63;5059217;28;20401;-65
2023/12/17 02:44:34;;;;;;;8.53;5.80;;;;;;;4.37;100.00;102444.78;5054003;28;20178;-64
2023/12/17 02:46:59;;;;;;;7.53;5.20;;;;;;;4.40;100.00;102444.78;5052655;28;20215;-64
2023/12/17 02:49:25;;;;;;;8.13;5.30;;;;;;;4.56;100.00;102445.78;5054296;28;20272;-64
2023/12/17 02:51:50;;;;;;;9.17;5.87;;;;;;;4.66;100.00;102441.59;5056599;28;20219;-65
2023/12/17 02:54:17;;;;;;;10.70;5.43;;;;;;;4.65;100.00;102430.56;5055628;28;20205;-64
2023/12/17 02:56:42;;;;;;;9.50;5.30;;;;;;;4.75;100.00;102431.50;5053455;28;20177;-64
2023/12/17 02:59:09;;;;;;;8.27;5.20;;;;;;;4.62;100.00;102434.78;5066905;28;20637;-64
2023/12/17 03:01:34;;;;;;;10.37;5.87;;;;;;;4.55;100.00;102430.47;5045411;28;20248;-64
2023/12/17 03:03:59;;;;;;;11.33;6.00;;;;;;;4.44;100.00;102423.59;5061082;28;20519;-63
2023/12/17 03:06:25;;;;;;;10.43;5.90;;;;;;;4.58;100.00;102421.16;5073024;28;20190;-64
2023/12/17 03:08:50;;;;;;;8.90;5.83;;;;;;;4.70;100.00;102422.94;5073512;28;20187;-65
2023/12/17 03:11:15;;;;;;;8.33;6.17;;;;;;;4.61;100.00;102430.53;5071102;28;20242;-65
2023/12/17 03:13:41;;;;;;;12.47;6.20;;;;;;;4.53;100.00;102420.28;5079171;28;20264;-64
2023/12/17 03:16:09;;;;;;;9.20;6.00;;;;;;;4.45;100.00;102419.34;5068331;28;20212;-64
2023/12/17 03:18:34;;;;;;;11.60;6.43;;;;;;;4.57;100.00;102403.31;5051530;28;20280;-64
2023/12/17 03:21:01;;;;;;;16.07;6.27;;;;;;;4.56;100.00;102407.53;5025145;28;20299;-64
2023/12/17 03:23:26;;;;;;;15.77;7.00;;;;;;;4.33;100.00;102404.84;5064369;28;20634;-64
2023/12/17 03:25:51;;;;;;;10.90;6.67;;;;;;;4.30;100.00;102402.25;5072097;28;20237;-64
2023/12/17 03:28:16;;;;;;;13.63;6.43;;;;;;;4.40;100.00;102396.38;5061446;28;20576;-65
2023/12/17 03:30:41;;;;;;;10.90;6.50;;;;;;;4.34;100.00;102398.88;5065316;28;20287;-65
2023/12/17 03:33:09;;;;;;;13.73;6.10;;;;;;;4.34;100.00;102399.75;5083657;28;20188;-63
2023/12/17 03:35:34;;;;;;;8.27;6.07;;;;;;;4.34;100.00;102402.28;5072811;28;20659;-65
2023/12/17 03:37:59;;;;;;;12.37;6.33;;;;;;;4.39;100.00;102407.44;5072393;28;20187;-64
2023/12/17 03:40:24;;;;;;;12.80;6.73;;;;;;;4.24;100.00;102394.53;5065039;28;20598;-63
2023/12/17 03:42:50;;;;;;;11.13;6.10;;;;;;;4.32;100.00;102393.75;5063408;28;20291;-63
2023/12/17 03:45:15;;;;;;;9.03;6.87;;;;;;;4.32;100.00;102388.66;5069795;28;20651;-64
2023/12/17 03:47:47;;;;;;;9.50;5.87;;;;;;;4.35;100.00;102398.91;5072214;28;20187;-64
2023/12/17 03:50:14;;;;;;;11.47;5.60;;;;;;;4.30;100.00;102399.69;5062689;28;20208;-63
2023/12/17 03:52:39;;;;;;;12.13;6.53;;;;;;;4.25;100.00;102393.72;5085686;28;20283;-64
2023/12/17 03:55:05;;;;;;;12.70;6.83;;;;;;;4.35;100.00;102400.59;5071549;28;20255;-64
2023/12/17 03:57:30;;;;;;;11.27;6.80;;;;;;;4.26;100.00;102400.50;5071616;28;20198;-64
2023/12/17 03:59:55;;;;;;;10.13;6.20;;;;;;;4.22;100.00;102392.00;5071809;28;20185;-64
2023/12/17 04:02:20;;;;;;;12.63;6.83;;;;;;;4.28;100.00;102401.38;5077853;28;20230;-64
2023/12/17 04:04:46;;;;;;;11.50;6.63;;;;;;;4.27;100.00;102402.22;5071363;28;20545;-65
2023/12/17 04:07:11;;;;;;;9.77;6.80;;;;;;;4.15;100.00;102396.16;5059715;28;20180;-64
2023/12/17 04:09:36;;;;;;;14.07;7.43;;;;;;;4.20;100.00;102391.09;5057286;28;20257;-64
2023/12/17 04:12:01;;;;;;;14.17;6.80;;;;;;;4.23;100.00;102398.81;5066312;28;20256;-64
2023/12/17 04:14:27;;;;;;;12.03;6.43;;;;;;;4.30;100.00;102403.09;5069180;28;20542;-64
2023/12/17 04:16:52;;;;;;;8.53;6.10;;;;;;;4.30;100.00;102397.16;5071568;28;20187;-64
2023/12/17 04:19:17;;;;;;;9.70;6.67;;;;;;;4.24;100.00;102404.72;5070962;28;20619;-64
2023/12/17 04:21:42;;;;;;;14.20;6.87;;;;;;;4.38;100.00;102392.97;5073765;28;20231;-65
2023/12/17 04:24:08;;;;;;;11.07;6.40;;;;;;;4.34;100.00;102399.75;5072615;28;20179;-64
2023/12/17 04:26:34;;;;;;;8.77;6.50;;;;;;;4.40;100.00;102400.63;5070683;28;20682;-64
2023/12/17 04:29:00;;;;;;;11.73;6.93;;;;;;;4.59;100.00;102402.47;5070021;28;20193;-64
2023/12/17 04:31:25;;;;;;;11.77;7.90;;;;;;;4.70;100.00;102400.00;5035462;27;20231;-64
2023/12/17 04:33:50;;;;;;;9.90;6.70;;;;;;;4.65;100.00;102402.53;5053043;28;20662;-64
2023/12/17 04:36:15;;;;;;;10.43;6.27;;;;;;;4.78;100.00;102400.91;5071210;28;20196;-64
2023/12/17 04:38:41;;;;;;;10.53;7.17;;;;;;;4.89;100.00;102388.22;5069311;28;20202;-64
2023/12/17 04:41:06;;;;;;;12.67;6.47;;;;;;;4.98;100.00;102382.31;5068977;28;20235;-64
2023/12/17 04:43:32;;;;;;;13.73;7.23;;;;;;;5.05;100.00;102385.75;5067199;28;20177;-65
2023/12/17 04:45:57;;;;;;;12.83;6.13;;;;;;;4.94;100.00;102384.00;5070843;28;20655;-65
2023/12/17 04:48:23;;;;;;;10.63;6.87;;;;;;;5.00;100.00;102385.75;5069178;28;20697;-64
2023/12/17 04:50:48;;;;;;;10.47;6.63;;;;;;;4.94;100.00;102391.66;5066096;28;20230;-65
2023/12/17 04:53:13;;;;;;;11.23;6.80;;;;;;;5.05;100.00;102386.63;5079192;28;20644;-64
2023/12/17 04:55:38;;;;;;;10.13;7.13;;;;;;;5.01;100.00;102388.28;5070488;28;20551;-65
2023/12/17 04:58:04;;;;;;;13.60;7.03;;;;;;;4.98;100.00;102388.25;5069178;28;20169;-63
2023/12/17 05:00:29;;;;;;;10.83;7.23;;;;;;;4.98;100.00;102382.31;5063688;28;20219;-63
2023/12/17 05:02:54;;;;;;;11.10;6.50;;;;;;;5.06;100.00;102385.78;5080896;28;20520;-64
2023/12/17 05:05:22;;;;;;;10.73;6.77;;;;;;;4.82;100.00;102386.47;5070965;28;20629;-64
2023/12/17 05:07:48;;;;;;;8.70;6.77;;;;;;;4.63;100.00;102383.81;5070480;28;20208;-64
2023/12/17 05:10:13;;;;;;;14.13;6.77;;;;;;;4.65;100.00;102376.16;5062349;28;20222;-63
2023/12/17 05:12:38;;;;;;;11.40;6.67;;;;;;;4.59;100.00;102377.00;5069124;28;20207;-65
2023/12/17 05:15:05;;;;;;;14.23;7.07;;;;;;;4.77;100.00;102380.50;5071210;28;20547;-64
2023/12/17 05:17:31;;;;;;;13.53;7.90;;;;;;;4.84;100.00;102383.09;5053809;28;20189;-64
2023/12/17 05:19:56;;;;;;;14.87;7.77;;;;;;;4.90;100.00;102378.88;5050933;28;20312;-64
2023/12/17 05:22:21;;;;;;;14.53;7.33;;;;;;;4.87;100.00;102377.16;5058968;28;20308;-64
2023/12/17 05:24:48;;;;;;;9.67;6.17;;;;;;;4.83;100.00;102375.44;5062103;28;20195;-64
2023/12/17 05:27:14;;;;;;;14.97;7.67;;;;;;;4.54;100.00;102381.22;5059834;28;20662;-65
2023/12/17 05:29:39;;;;;;;10.87;7.93;;;;;;;4.66;100.00;102383.84;5068363;28;20205;-64
2023/12/17 05:32:04;;;;;;;10.90;7.10;;;;;;;4.77;100.00;102386.44;5057748;28;20234;-64
2023/12/17 05:34:30;;;;;;;14.03;7.40;;;;;;;4.83;100.00;102381.38;5065223;28;20260;-64
2023/12/17 05:36:55;;;;;;;14.70;7.80;;;;;;;4.77;100.00;102394.09;5070595;28;20188;-65
2023/12/17 05:39:20;;;;;;;12.40;7.53;;;;;;;4.80;100.00;102391.56;5074540;28;20188;-64
2023/12/17 05:41:45;;;;;;;13.50;7.20;;;;;;;4.80;100.00;102377.97;5073185;27;20308;-65
2023/12/17 05:44:11;;;;;;;8.17;5.47;;;;;;;4.59;100.00;102388.88;5069016;28;20643;-65
2023/12/17 05:46:36;;;;;;;6.80;5.33;;;;;;;4.67;100.00;102390.63;5073544;28;20219;-65
2023/12/17 05:49:01;;;;;;;7.90;5.47;;;;;;;4.78;100.00;102392.41;5073766;28;20206;-64
2023/12/17 05:51:26;;;;;;;8.23;5.40;;;;;;;4.69;100.00;102394.03;5070099;27;20224;-64
2023/12/17 05:53:52;;;;;;;9.83;6.03;;;;;;;4.83;100.00;102395.84;5078064;28;20168;-65
2023/12/17 05:56:17;;;;;;;7.97;5.80;;;;;;;4.75;100.00;102395.81;5069035;28;20207;-65
2023/12/17 05:58:43;;;;;;;11.50;6.63;;;;;;;4.68;100.00;102386.41;5075643;28;20195;-64
2023/12/17 06:01:08;;;;;;;12.60;6.23;;;;;;;4.75;100.00;102389.81;5067809;27;20225;-64
2023/12/17 06:03:34;;;;;;;10.57;6.20;;;;;;;4.67;100.00;102387.22;5081148;28;20267;-64
2023/12/17 06:05:59;;;;;;;8.77;5.57;;;;;;;4.63;100.00;102394.00;5074174;28;20263;-65
2023/12/17 06:08:25;;;;;;;11.53;6.73;;;;;;;4.62;100.00;102392.28;5076913;28;20649;-64
2023/12/17 06:10:50;;;;;;;10.97;6.33;;;;;;;4.52;100.00;102393.06;5071805;27;20227;-64
2023/12/17 06:13:15;;;;;;;12.47;6.80;;;;;;;4.62;100.00;102402.50;5066923;28;20191;-64
2023/12/17 06:15:40;;;;;;;11.87;7.43;;;;;;;4.67;100.00;102402.53;5057619;28;20651;-65
2023/12/17 06:18:06;;;;;;;12.97;7.87;;;;;;;4.61;100.00;102399.94;5057564;28;20189;-64
2023/12/17 06:20:31;;;;;;;12.03;6.77;;;;;;;4.49;100.00;102393.03;5050914;28;20240;-64
2023/12/17 06:22:56;;;;;;;8.37;5.93;;;;;;;4.69;100.00;102398.31;5069265;28;20173;-64
2023/12/17 06:25:22;;;;;;;10.03;6.77;;;;;;;4.70;100.00;102400.00;5058447;28;20201;-64
2023/12/17 06:27:49;;;;;;;7.97;5.60;;;;;;;4.72;100.00;102400.88;5057752;28;20181;-65
2023/12/17 06:30:15;;;;;;;10.70;7.10;;;;;;;4.59;100.00;102396.50;5050368;27;20295;-65
2023/12/17 06:32:41;;;;;;;12.43;7.50;;;;;;;4.78;100.00;102398.34;5057088;28;20280;-64
2023/12/17 06:35:07;;;;;;;11.70;6.27;;;;;;;4.56;100.00;102399.91;5057449;28;20239;-65
2023/12/17 06:37:32;;;;;;;7.40;6.17;;;;;;;4.67;100.00;102398.28;5057453;28;20636;-64
2023/12/17 06:39:57;;;;;;;13.13;6.90;;;;;;;4.64;100.00;102403.38;5058386;28;20182;-64
2023/12/17 06:42:22;;;;;;;8.40;6.23;;;;;;;4.49;100.00;102403.22;5046381;28;20235;-65
2023/12/17 06:44:48;;;;;;;9.33;6.30;;;;;;;4.46;100.00;102410.88;5056162;28;20179;-65
2023/12/17 06:47:15;;;;;;;10.40;6.80;;;;;;;4.15;100.00;102410.59;5053865;28;20278;-64
2023/12/17 06:49:40;;;;;;;15.03;7.10;;;;;;;4.20;100.00;102411.50;5054667;28;20193;-65
2023/12/17 06:52:05;;;;;;;11.40;8.57;;;;;;;4.19;100.00;102422.50;5059316;28;20224;-64
2023/12/17 06:54:31;;;;;;;11.97;6.73;;;;;;;4.40;100.00;102418.47;5065990;28;20321;-64
2023/12/17 06:56:56;;;;;;;10.67;8.27;;;;;;;4.35;100.00;102416.75;5073164;28;20181;-64
2023/12/17 06:59:21;;;;;;;11.53;7.97;;;;;;;4.23;100.00;102415.75;5060764;28;20235;-64
2023/12/17 07:01:46;;;;;;;11.30;8.07;;;;;;;4.01;100.00;102407.94;5057226;28;20720;-64
2023/12/17 07:04:12;;;;;;;13.33;8.03;;;;;;;4.13;100.00;102402.09;5056520;28;20639;-64
2023/12/17 07:06:37;;;;;;;13.83;7.80;;;;;;;4.14;100.00;102398.69;5073055;28;20183;-64
2023/12/17 07:09:02;;;;;;;11.60;7.87;;;;;;;4.07;100.00;102395.25;5060355;28;20223;-65
2023/12/17 07:11:28;;;;;;;12.70;7.97;;;;;;;4.10;100.00;102402.91;5054457;28;20251;-64
2023/12/17 07:13:53;;;;;;;10.63;8.13;;;;;;;4.38;100.00;102397.19;5058607;28;20208;-64
2023/12/17 07:16:22;;;;;;;12.47;7.90;;;;;;;4.47;100.00;102402.38;5073474;28;20187;-64
2023/12/17 07:18:48;;;;;;;13.43;8.63;;;;;;;4.34;100.00;102419.25;5068330;28;20567;-64
2023/12/17 07:21:13;;;;;;;14.97;9.07;;;;;;;4.26;100.00;102405.63;5052839;28;20245;-65
2023/12/17 07:23:38;;;;;;;11.83;7.03;;;;;;;4.11;100.00;102403.78;5060159;28;20271;-64
2023/12/17 07:26:04;;;;;;;8.80;6.57;;;;;;;4.26;100.00;102405.63;5061887;28;20214;-64
2023/12/17 07:28:29;;;;;;;9.00;5.90;;;;;;;4.41;100.00;102415.09;5057585;28;20177;-64
2023/12/17 07:30:54;;;;;;;9.17;5.67;;;;;;;4.31;100.00;102407.34;5053621;28;20674;-65
2023/12/17 07:33:19;;;;;;;7.70;5.70;;;;;;;4.14;100.00;102404.66;5062359;28;20322;-63
2023/12/17 07:35:45;;;;;;;6.90;5.13;;;;;;;4.07;100.00;102402.91;5061612;28;20173;-63
2023/12/17 07:38:10;;;;;;;7.20;4.90;;;;;;;4.15;100.00;102405.50;5066002;28;20181;-63
2023/12/17 07:40:35;;;;;;;5.30;4.40;;;;;;;4.26;100.00;102400.50;5066122;28;20261;-63
2023/12/17 07:43:01;;;;;;;6.83;4.83;;;;;;;4.35;100.00;102400.59;5083613;28;20187;-64
2023/12/17 07:45:26;;;;;;;6.03;4.63;;;;;;;4.39;100.00;102397.25;5059515;28;20619;-62
2023/12/17 07:47:51;;;;;;;7.00;4.23;;;;;;;4.48;100.00;102397.28;5056236;28;20193;-64
2023/12/17 07:50:17;;;;;;;6.77;4.60;;;;;;;4.55;100.00;102403.28;5048002;28;20209;-63
2023/12/17 07:52:42;;;;;;;4.03;3.20;;;;;;;4.43;100.00;102403.19;5065442;28;20185;-64
2023/12/17 07:55:08;;;;;;;5.00;3.80;;;;;;;4.57;100.00;102403.31;5057132;28;20230;-63
2023/12/17 07:57:33;;;;;;;4.87;4.10;;;;;;;4.64;100.00;102403.38;5060545;28;20222;-62
2023/12/17 07:59:58;;;;;;;8.63;4.27;;;;;;;4.71;100.00;102401.69;5055753;28;20216;-64
2023/12/17 08:02:24;;;;;;;4.93;4.07;;;;;;;4.45;100.00;102404.94;5047908;28;20216;-64
2023/12/17 08:04:50;;;;;;;7.47;4.73;;;;;;;4.58;100.00;102400.78;5060163;28;20747;-64
2023/12/17 08:07:15;;;;;;;6.97;4.00;;;;;;;4.68;100.00;102399.97;5058125;28;20195;-63
2023/12/17 08:09:40;;;;;;;4.80;3.83;;;;;;;4.89;100.00;102402.66;5050869;28;20201;-63
2023/12/17 08:12:07;;;;;;;6.23;4.53;;;;;;;4.87;100.00;102400.09;5055787;28;20223;-63
2023/12/17 08:14:32;;;;;;;5.17;3.70;;;;;;;4.74;100.00;102400.88;5052926;28;20299;-62
2023/12/17 08:16:58;;;;;;;4.60;3.93;;;;;;;4.52;100.00;102409.22;5052685;28;20271;-63
2023/12/17 08:19:23;;;;;;;5.43;4.40;;;;;;;4.63;100.00;102403.38;5053881;28;20660;-63
2023/12/17 08:21:48;;;;;;;5.53;4.13;;;;;;;4.63;100.00;102403.38;5056057;28;20228;-63
2023/12/17 08:24:14;;;;;;;5.47;3.83;;;;;;;4.59;100.00;102404.16;5054412;28;20652;-63
2023/12/17 08:26:39;;;;;;;5.47;3.83;;;;;;;4.53;100.00;102398.19;5052016;28;20178;-62
2023/12/17 08:29:04;;;;;;;3.93;3.60;;;;;;;4.29;100.00;102405.63;5052543;28;20204;-63
2023/12/17 08:31:29;;;;;;;5.00;3.93;;;;;;;4.38;100.00;102403.16;5023166;28;20232;-63
2023/12/17 08:33:55;;;;;;;5.80;3.77;;;;;;;4.22;100.00;102408.94;5060478;28;20181;-63
2023/12/17 08:36:22;;;;;;;5.30;4.27;;;;;;;4.42;100.00;102404.06;5071742;28;20173;-62
2023/12/17 08:38:48;;;;;;;5.27;4.60;;;;;;;4.40;100.00;102415.91;5070907;28;20188;-63
2023/12/17 08:41:13;;;;;;;6.27;4.43;;;;;;;4.01;100.00;102418.97;5070842;28;20691;-63
2023/12/17 08:43:38;;;;;;;7.50;4.97;;;;;;;3.91;100.00;102423.94;5067618;28;20543;-63
2023/12/17 08:46:04;;;;;;;7.57;5.10;;;;;;;3.94;100.00;102424.81;5060576;28;20251;-63
2023/12/17 08:48:29;;;;;;;5.37;4.73;;;;;;;4.21;100.00;102436.13;5068064;28;20184;-62
2023/12/17 08:50:54;;;;;;;6.93;5.83;;;;;;;4.27;100.00;102440.44;5067231;28;20231;-63
2023/12/17 08:53:22;;;;;;;6.57;5.90;;;;;;;4.29;100.00;102446.38;5079827;28;20175;-63
2023/12/17 08:55:48;;;;;;;9.27;7.47;;;;;;;4.39;100.00;102427.81;5070309;28;20624;-63
2023/12/17 08:58:14;;;;;;;9.83;7.03;;;;;;;4.64;100.00;102428.84;5070002;28;20191;-63
2023/12/17 09:00:39;;;;;;;6.70;5.67;;;;;;;4.43;100.00;102431.22;5065704;28;20234;-63
2023/12/17 09:03:04;;;;;;;8.40;5.63;;;;;;;4.49;100.00;102432.16;5081117;28;20187;-63
2023/12/17 09:05:29;;;;;;;7.27;5.87;;;;;;;4.68;100.00;102427.19;5071208;28;20203;-64
2023/12/17 09:07:54;;;;;;;8.80;6.37;;;;;;;4.62;100.00;102429.69;5069651;28;20181;-63
2023/12/17 09:10:23;;;;;;;8.80;6.60;;;;;;;4.75;100.00;102430.63;5063063;28;20249;-63
2023/12/17 09:12:49;;;;;;;9.40;6.10;;;;;;;4.80;100.00;102428.94;5083143;28;20177;-63
2023/12/17 09:15:15;;;;;;;9.33;6.23;;;;;;;4.92;100.00;102421.38;5070797;28;20547;-63
2023/12/17 09:17:42;;;;;;;7.93;6.20;;;;;;;4.77;100.00;102416.19;5069564;28;20225;-63
2023/12/17 09:20:08;;;;;;;9.50;7.07;;;;;;;4.81;100.00;102426.44;5061268;28;20307;-63
2023/12/17 09:22:33;;;;;;;10.87;6.73;;;;;;;4.68;100.00;102427.19;5084941;28;20260;-63
2023/12/17 09:24:59;;;;;;;8.33;6.10;;;;;;;4.58;100.00;102426.25;5053011;28;20192;-64
2023/12/17 09:27:24;;;;;;;9.33;6.37;;;;;;;4.44;100.00;102426.16;5069760;28;20176;-64
2023/12/17 09:29:49;;;;;;;7.97;6.80;;;;;;;4.39;100.00;102430.38;5070451;28;20205;-63
2023/12/17 09:32:15;;;;;;;10.47;6.77;;;;;;;4.62;100.00;102435.63;5075569;28;20215;-63
2023/12/17 09:34:40;;;;;;;8.90;6.43;;;;;;;4.68;100.00;102439.94;5070648;28;20535;-63
2023/12/17 09:37:05;;;;;;;9.77;6.90;;;;;;;4.60;100.00;102447.53;5069065;28;20173;-62
2023/12/17 09:39:31;;;;;;;10.13;7.03;;;;;;;4.59;100.00;102440.72;5070500;28;20259;-63
2023/12/17 09:41:56;;;;;;;10.43;7.30;;;;;;;4.66;100.00;102434.84;5074163;28;20258;-62
2023/12/17 09:44:21;;;;;;;8.07;6.33;;;;;;;4.76;100.00;102439.97;5060122;28;20227;-63
2023/12/17 09:46:46;;;;;;;8.90;6.40;;;;;;;4.63;100.00;102439.06;5040037;28;21012;-63
2023/12/17 09:49:12;;;;;;;8.97;6.17;;;;;;;4.55;100.00;102441.50;5051241;28;20219;-64
2023/12/17 09:51:45;;;;;;;7.80;5.93;;;;;;;4.23;100.00;102441.25;5066478;28;20656;-64
2023/12/17 09:54:11;;;;;;;8.30;6.50;;;;;;;4.32;100.00;102431.16;5049836;28;20267;-63
2023/12/17 09:56:36;;;;;;;7.20;5.90;;;;;;;4.38;100.00;102440.53;5054394;28;20764;-63
2023/12/17 09:59:01;;;;;;;9.17;6.10;;;;;;;4.43;100.00;102439.72;5069812;28;20267;-63
2023/12/17 10:01:27;;;;;;;7.23;5.60;;;;;;;4.26;100.00;102436.19;5058262;28;20228;-63
2023/12/17 10:03:52;;;;;;;7.87;5.87;;;;;;;4.38;100.00;102443.94;5062347;28;20214;-63
2023/12/17 10:06:20;;;;;;;8.00;6.30;;;;;;;4.41;100.00;102443.97;5070417;28;20186;-63
2023/12/17 10:08:46;;;;;;;7.50;5.90;;;;;;;4.47;100.00;102441.47;5069127;28;20187;-63
2023/12/17 10:11:15;;;;;;;8.23;6.00;;;;;;;4.38;100.00;102440.53;5068969;28;20264;-63
2023/12/17 10:13:40;;;;;;;6.77;5.90;;;;;;;4.17;100.00;102430.16;5076956;28;20225;-64
2023/12/17 10:16:06;;;;;;;6.73;5.23;;;;;;;3.98;100.00;102420.63;5069215;28;20235;-63
2023/12/17 10:18:32;;;;;;;8.33;6.63;;;;;;;4.19;100.00;102419.97;5060560;28;20196;-63
2023/12/17 10:20:57;;;;;;;7.63;5.20;;;;;;;4.16;100.00;102423.34;5056717;28;20258;-63
2023/12/17 10:23:23;;;;;;;9.60;6.33;;;;;;;4.45;100.00;102421.91;5073139;28;20242;-63
2023/12/17 10:25:58;;;;;;;7.33;5.50;;;;;;;4.28;100.00;102414.97;5072994;28;20180;-63
2023/12/17 10:28:24;;;;;;;7.57;5.47;;;;;;;4.44;100.00;102412.53;5073528;28;20568;-63
2023/12/17 10:30:50;;;;;;;6.33;4.50;;;;;;;4.63;100.00;102408.47;5044597;28;20218;-63
2023/12/17 10:33:21;;;;;;;8.03;6.27;;;;;;;4.13;100.00;102408.03;5073030;28;20181;-63
2023/12/17 10:35:47;;;;;;;7.43;5.40;;;;;;;4.16;100.00;102404.66;5072082;28;20180;-62
2023/12/17 10:38:14;;;;;;;10.33;6.63;;;;;;;4.44;100.00;102404.91;5072186;28;20657;-63
2023/12/17 10:40:41;;;;;;;7.63;5.90;;;;;;;4.67;100.00;102398.28;5065096;28;20694;-64
2023/12/17 10:43:07;;;;;;;7.57;5.83;;;;;;;4.64;100.00;102398.25;5062308;28;20196;-64
2023/12/17 10:45:34;;;;;;;7.87;5.20;;;;;;;4.48;100.00;102388.81;5073688;28;20226;-64
2023/12/17 10:48:00;;;;;;;7.43;5.97;;;;;;;4.69;100.00;102388.09;5073296;28;20227;-63
2023/12/17 10:50:26;;;;;;;5.40;4.90;;;;;;;4.95;100.00;102387.38;5053067;28;20259;-63
2023/12/17 10:52:52;;;;;;;5.67;4.63;;;;;;;5.01;100.00;102378.09;5072390;28;20246;-63
2023/12/17 10:55:19;;;;;;;5.80;5.20;;;;;;;5.04;100.00;102371.31;5054195;28;20286;-63
2023/12/17 10:57:49;;;;;;;5.67;4.77;;;;;;;5.09;100.00;102364.53;5052674;28;20193;-63
2023/12/17 11:00:18;;;;;;;5.20;4.70;;;;;;;5.14;100.00;102362.84;5031854;28;20227;-63
2023/12/17 11:02:45;;;;;;;5.20;4.60;;;;;;;5.05;100.00;102361.09;5067323;28;20189;-63
2023/12/17 11:05:12;;;;;;;6.53;5.37;;;;;;;5.08;100.00;102353.44;5062119;28;20632;-63
2023/12/17 11:07:37;;;;;;;6.10;5.10;;;;;;;5.28;100.00;102345.91;5058287;28;20271;-63
2023/12/17 11:10:05;;;;;;;6.60;4.93;;;;;;;5.46;100.00;102346.81;5068967;28;20204;-63
2023/12/17 11:12:30;;;;;;;7.03;5.43;;;;;;;5.44;100.00;102340.84;5038202;28;20191;-63
2023/12/17 11:14:58;;;;;;;5.30;4.80;;;;;;;5.36;100.00;102337.41;5073225;28;20177;-64